sensor_id;sensor_type;location;lat;lon;timestamp;pressure;altitude;pressure_sealevel;temperature;humidity
52949;BME280;38812;50.942;3.644;2023-03-31T00:01:10;100267.53;;;11.09;100.00
52949;BME280;38812;50.942;3.644;2023-03-31T00:03:36;100264.97;;;11.08;100.00
52949;BME280;38812;50.942;3.644;2023-03-31T00:06:09;100266.13;;;10.99;100.00
52949;BME280;38812;50.942;3.644;2023-03-31T00:08:36;100269.56;;;11.01;100.00
52949;BME280;38812;50.942;3.644;2023-03-31T00:11:03;100263.66;;;10.94;100.00
52949;BME280;38812;50.942;3.644;2023-03-31T00:13:30;100262.06;;;10.89;100.00
52949;BME280;38812;50.942;3.644;2023-03-31T00:16:05;100264.88;;;10.83;100.00
52949;BME280;38812;50.942;3.644;2023-03-31T00:18:31;100258.09;;;10.76;100.00
52949;BME280;38812;50.942;3.644;2023-03-31T00:21:08;100261.78;;;10.70;100.00
52949;BME280;38812;50.942;3.644;2023-03-31T00:23:38;100246.16;;;10.65;100.00
52949;BME280;38812;50.942;3.644;2023-03-31T00:26:04;100240.06;;;10.63;100.00
52949;BME280;38812;50.942;3.644;2023-03-31T00:28:30;100237.56;;;10.60;100.00
52949;BME280;38812;50.942;3.644;2023-03-31T00:30:59;100237.75;;;10.54;100.00
52949;BME280;38812;50.942;3.644;2023-03-31T00:33:25;100230.09;;;10.47;100.00
52949;BME280;38812;50.942;3.644;2023-03-31T00:35:51;100211.84;;;10.42;100.00
52949;BME280;38812;50.942;3.644;2023-03-31T00:38:16;100222.19;;;10.48;100.00
52949;BME280;38812;50.942;3.644;2023-03-31T00:40:45;100208.31;;;10.43;100.00
52949;BME280;38812;50.942;3.644;2023-03-31T00:43:25;100194.38;;;10.41;100.00
52949;BME280;38812;50.942;3.644;2023-03-31T00:45:51;100186.66;;;10.37;100.00
52949;BME280;38812;50.942;3.644;2023-03-31T00:48:18;100175.38;;;10.33;100.00
52949;BME280;38812;50.942;3.644;2023-03-31T00:50:53;100159.50;;;10.38;100.00
52949;BME280;38812;50.942;3.644;2023-03-31T00:53:24;100148.88;;;10.41;100.00
52949;BME280;38812;50.942;3.644;2023-03-31T00:55:53;100136.91;;;10.32;100.00
52949;BME280;38812;50.942;3.644;2023-03-31T00:58:20;100126.44;;;10.30;100.00
52949;BME280;38812;50.942;3.644;2023-03-31T01:00:53;100120.28;;;10.32;100.00
52949;BME280;38812;50.942;3.644;2023-03-31T01:03:19;100104.53;;;10.32;100.00
52949;BME280;38812;50.942;3.644;2023-03-31T01:06:02;100097.56;;;10.30;100.00
52949;BME280;38812;50.942;3.644;2023-03-31T01:08:30;100091.56;;;10.27;100.00
52949;BME280;38812;50.942;3.644;2023-03-31T01:10:59;100071.13;;;10.37;100.00
52949;BME280;38812;50.942;3.644;2023-03-31T01:13:26;100065.97;;;10.34;100.00
52949;BME280;38812;50.942;3.644;2023-03-31T01:15:53;100052.75;;;10.37;100.00
52949;BME280;38812;50.942;3.644;2023-03-31T01:18:19;100049.28;;;10.36;100.00
52949;BME280;38812;50.942;3.644;2023-03-31T01:34:56;99999.06;;;10.45;100.00
52949;BME280;38812;50.942;3.644;2023-03-31T01:40:59;99965.69;;;10.49;100.00
52949;BME280;38812;50.942;3.644;2023-03-31T01:51:51;99934.41;;;10.41;100.00
52949;BME280;38812;50.942;3.644;2023-03-31T01:54:27;99926.88;;;10.32;100.00
52949;BME280;38812;50.942;3.644;2023-03-31T01:56:58;99931.84;;;10.40;100.00
52949;BME280;38812;50.942;3.644;2023-03-31T01:59:28;99914.28;;;10.42;100.00
52949;BME280;38812;50.942;3.644;2023-03-31T02:02:18;99912.75;;;10.36;100.00
52949;BME280;38812;50.942;3.644;2023-03-31T02:05:05;99914.47;;;10.37;100.00
52949;BME280;38812;50.942;3.644;2023-03-31T02:07:42;99891.50;;;10.42;100.00
52949;BME280;38812;50.942;3.644;2023-03-31T02:10:11;99887.97;;;10.43;100.00
52949;BME280;38812;50.942;3.644;2023-03-31T02:12:38;99893.66;;;10.31;100.00
52949;BME280;38812;50.942;3.644;2023-03-31T02:15:07;99869.34;;;10.26;100.00
52949;BME280;38812;50.942;3.644;2023-03-31T02:17:34;99857.72;;;10.33;100.00
52949;BME280;38812;50.942;3.644;2023-03-31T02:20:07;99850.16;;;10.24;100.00
52949;BME280;38812;50.942;3.644;2023-03-31T02:22:37;99858.63;;;10.32;100.00
52949;BME280;38812;50.942;3.644;2023-03-31T02:25:05;99840.81;;;10.40;100.00
52949;BME280;38812;50.942;3.644;2023-03-31T02:27:46;99827.44;;;10.23;100.00
52949;BME280;38812;50.942;3.644;2023-03-31T02:30:15;99828.94;;;10.30;100.00
52949;BME280;38812;50.942;3.644;2023-03-31T02:32:42;99811.38;;;10.32;100.00
52949;BME280;38812;50.942;3.644;2023-03-31T02:35:11;99794.72;;;10.33;100.00
52949;BME280;38812;50.942;3.644;2023-03-31T02:37:39;99808.59;;;10.37;100.00
52949;BME280;38812;50.942;3.644;2023-03-31T02:40:09;99792.25;;;10.28;100.00
52949;BME280;38812;50.942;3.644;2023-03-31T02:42:37;99793.31;;;10.23;100.00
52949;BME280;38812;50.942;3.644;2023-03-31T02:45:06;99785.56;;;10.20;100.00
52949;BME280;38812;50.942;3.644;2023-03-31T02:47:32;99776.34;;;10.08;100.00
52949;BME280;38812;50.942;3.644;2023-03-31T02:49:59;99764.38;;;10.00;100.00
52949;BME280;38812;50.942;3.644;2023-03-31T02:55:20;99749.25;;;9.83;100.00
52949;BME280;38812;50.942;3.644;2023-03-31T02:58:09;99733.66;;;9.78;100.00
52949;BME280;38812;50.942;3.644;2023-03-31T03:06:18;99719.19;;;9.68;100.00
52949;BME280;38812;50.942;3.644;2023-03-31T03:17:13;99700.56;;;9.51;100.00
52949;BME280;38812;50.942;3.644;2023-03-31T03:19:40;99708.47;;;9.49;100.00
52949;BME280;38812;50.942;3.644;2023-03-31T03:22:06;99690.84;;;9.53;100.00
52949;BME280;38812;50.942;3.644;2023-03-31T03:24:32;99697.16;;;9.49;100.00
52949;BME280;38812;50.942;3.644;2023-03-31T03:26:59;99698.97;;;9.47;100.00
52949;BME280;38812;50.942;3.644;2023-03-31T03:29:24;99702.50;;;9.46;100.00
52949;BME280;38812;50.942;3.644;2023-03-31T03:31:51;99683.34;;;9.44;100.00
52949;BME280;38812;50.942;3.644;2023-03-31T03:34:17;99667.72;;;9.41;100.00
52949;BME280;38812;50.942;3.644;2023-03-31T03:36:44;99650.63;;;9.54;100.00
52949;BME280;38812;50.942;3.644;2023-03-31T03:39:11;99656.09;;;9.48;100.00
52949;BME280;38812;50.942;3.644;2023-03-31T03:41:37;99658.19;;;9.38;100.00
52949;BME280;38812;50.942;3.644;2023-03-31T03:44:03;99657.44;;;9.35;100.00
52949;BME280;38812;50.942;3.644;2023-03-31T03:46:28;99650.59;;;9.31;100.00
52949;BME280;38812;50.942;3.644;2023-03-31T03:48:54;99647.19;;;9.28;100.00
52949;BME280;38812;50.942;3.644;2023-03-31T03:51:20;99635.84;;;9.28;100.00
52949;BME280;38812;50.942;3.644;2023-03-31T03:53:45;99631.56;;;9.25;100.00
52949;BME280;38812;50.942;3.644;2023-03-31T03:56:11;99629.94;;;9.21;100.00
52949;BME280;38812;50.942;3.644;2023-03-31T03:58:36;99635.19;;;9.21;100.00
52949;BME280;38812;50.942;3.644;2023-03-31T04:01:02;99635.34;;;9.17;100.00
52949;BME280;38812;50.942;3.644;2023-03-31T04:03:28;99635.38;;;9.15;100.00
52949;BME280;38812;50.942;3.644;2023-03-31T04:05:53;99620.63;;;9.13;100.00
52949;BME280;38812;50.942;3.644;2023-03-31T04:08:19;99619.03;;;9.09;100.00
52949;BME280;38812;50.942;3.644;2023-03-31T04:10:45;99601.44;;;9.12;100.00
52949;BME280;38812;50.942;3.644;2023-03-31T04:13:17;99599.84;;;9.08;100.00
52949;BME280;38812;50.942;3.644;2023-03-31T04:15:42;99600.84;;;9.04;100.00
52949;BME280;38812;50.942;3.644;2023-03-31T04:18:09;99597.09;;;9.11;100.00
52949;BME280;38812;50.942;3.644;2023-03-31T04:20:51;99577.44;;;9.00;100.00
52949;BME280;38812;50.942;3.644;2023-03-31T04:23:32;99580.09;;;8.98;100.00
52949;BME280;38812;50.942;3.644;2023-03-31T04:25:58;99575.72;;;8.99;100.00
52949;BME280;38812;50.942;3.644;2023-03-31T04:28:23;99580.81;;;9.03;100.00
52949;BME280;38812;50.942;3.644;2023-03-31T04:30:53;99559.84;;;9.03;100.00
52949;BME280;38812;50.942;3.644;2023-03-31T04:33:19;99555.53;;;9.02;100.00
52949;BME280;38812;50.942;3.644;2023-03-31T04:35:45;99553.72;;;9.04;100.00
52949;BME280;38812;50.942;3.644;2023-03-31T04:38:22;99548.34;;;9.07;100.00
52949;BME280;38812;50.942;3.644;2023-03-31T04:40:50;99541.06;;;9.15;100.00
52949;BME280;38812;50.942;3.644;2023-03-31T04:43:17;99535.50;;;9.24;100.00
52949;BME280;38812;50.942;3.644;2023-03-31T04:45:43;99527.59;;;9.26;100.00
52949;BME280;38812;50.942;3.644;2023-03-31T04:48:09;99507.47;;;9.26;100.00
52949;BME280;38812;50.942;3.644;2023-03-31T04:50:34;99501.28;;;9.29;100.00
52949;BME280;38812;50.942;3.644;2023-03-31T04:53:01;99510.53;;;9.38;100.00
52949;BME280;38812;50.942;3.644;2023-03-31T04:55:26;99513.84;;;9.43;100.00
52949;BME280;38812;50.942;3.644;2023-03-31T04:57:52;99505.28;;;9.61;100.00
52949;BME280;38812;50.942;3.644;2023-03-31T05:00:18;99498.78;;;9.71;100.00
52949;BME280;38812;50.942;3.644;2023-03-31T05:02:44;99489.63;;;9.81;100.00
52949;BME280;38812;50.942;3.644;2023-03-31T05:05:10;99487.75;;;9.85;100.00
52949;BME280;38812;50.942;3.644;2023-03-31T05:07:35;99478.09;;;9.85;100.00
52949;BME280;38812;50.942;3.644;2023-03-31T05:10:01;99480.50;;;9.91;100.00
52949;BME280;38812;50.942;3.644;2023-03-31T05:12:26;99482.19;;;9.92;100.00
52949;BME280;38812;50.942;3.644;2023-03-31T05:14:51;99481.03;;;10.00;100.00
52949;BME280;38812;50.942;3.644;2023-03-31T05:17:17;99480.97;;;10.01;100.00
52949;BME280;38812;50.942;3.644;2023-03-31T05:19:43;99479.06;;;10.05;100.00
52949;BME280;38812;50.942;3.644;2023-03-31T05:22:08;99472.13;;;10.04;100.00
52949;BME280;38812;50.942;3.644;2023-03-31T05:24:34;99474.63;;;10.07;100.00
52949;BME280;38812;50.942;3.644;2023-03-31T05:27:00;99470.03;;;10.12;100.00
52949;BME280;38812;50.942;3.644;2023-03-31T05:29:25;99467.97;;;10.20;100.00
52949;BME280;38812;50.942;3.644;2023-03-31T05:31:51;99465.38;;;10.18;100.00
52949;BME280;38812;50.942;3.644;2023-03-31T05:34:18;99471.31;;;10.23;100.00
52949;BME280;38812;50.942;3.644;2023-03-31T05:36:44;99459.72;;;10.29;100.00
52949;BME280;38812;50.942;3.644;2023-03-31T05:39:12;99455.22;;;10.33;100.00
52949;BME280;38812;50.942;3.644;2023-03-31T05:41:38;99465.78;;;10.31;100.00
52949;BME280;38812;50.942;3.644;2023-03-31T05:44:04;99445.88;;;10.25;100.00
52949;BME280;38812;50.942;3.644;2023-03-31T05:46:29;99446.22;;;10.38;100.00
52949;BME280;38812;50.942;3.644;2023-03-31T05:48:55;99447.00;;;10.40;100.00
52949;BME280;38812;50.942;3.644;2023-03-31T05:51:21;99444.53;;;10.37;100.00
52949;BME280;38812;50.942;3.644;2023-03-31T05:53:46;99440.44;;;10.30;100.00
52949;BME280;38812;50.942;3.644;2023-03-31T05:56:12;99429.69;;;10.36;100.00
52949;BME280;38812;50.942;3.644;2023-03-31T05:58:38;99428.84;;;10.36;100.00
52949;BME280;38812;50.942;3.644;2023-03-31T06:01:06;99415.41;;;10.42;100.00
52949;BME280;38812;50.942;3.644;2023-03-31T06:03:36;99400.41;;;10.45;100.00
52949;BME280;38812;50.942;3.644;2023-03-31T06:06:03;99413.34;;;10.50;100.00
52949;BME280;38812;50.942;3.644;2023-03-31T06:08:30;99412.59;;;10.46;100.00
52949;BME280;38812;50.942;3.644;2023-03-31T06:10:56;99411.81;;;10.44;100.00
52949;BME280;38812;50.942;3.644;2023-03-31T06:13:21;99400.47;;;10.44;100.00
52949;BME280;38812;50.942;3.644;2023-03-31T06:15:58;99406.06;;;10.56;100.00
52949;BME280;38812;50.942;3.644;2023-03-31T06:18:25;99408.81;;;10.53;100.00
52949;BME280;38812;50.942;3.644;2023-03-31T06:20:53;99404.22;;;10.58;100.00
52949;BME280;38812;50.942;3.644;2023-03-31T06:23:19;99405.00;;;10.60;100.00
52949;BME280;38812;50.942;3.644;2023-03-31T06:25:45;99408.53;;;10.59;100.00
52949;BME280;38812;50.942;3.644;2023-03-31T06:28:10;99404.78;;;10.65;100.00
52949;BME280;38812;50.942;3.644;2023-03-31T06:30:36;99396.69;;;10.70;100.00
52949;BME280;38812;50.942;3.644;2023-03-31T06:33:01;99408.78;;;10.74;100.00
52949;BME280;38812;50.942;3.644;2023-03-31T06:35:27;99400.38;;;10.65;100.00
52949;BME280;38812;50.942;3.644;2023-03-31T06:37:52;99405.63;;;10.65;100.00
52949;BME280;38812;50.942;3.644;2023-03-31T06:40:17;99397.56;;;10.70;100.00
52949;BME280;38812;50.942;3.644;2023-03-31T06:42:43;99393.47;;;10.63;100.00
52949;BME280;38812;50.942;3.644;2023-03-31T06:45:09;99398.53;;;10.68;100.00
52949;BME280;38812;50.942;3.644;2023-03-31T06:47:34;99392.03;;;10.76;100.00
52949;BME280;38812;50.942;3.644;2023-03-31T06:50:02;99385.66;;;10.82;100.00
52949;BME280;38812;50.942;3.644;2023-03-31T06:52:28;99388.91;;;10.87;100.00
52949;BME280;38812;50.942;3.644;2023-03-31T06:54:55;99387.84;;;10.91;100.00
52949;BME280;38812;50.942;3.644;2023-03-31T06:57:20;99380.88;;;10.90;100.00
52949;BME280;38812;50.942;3.644;2023-03-31T06:59:45;99384.81;;;11.00;100.00
52949;BME280;38812;50.942;3.644;2023-03-31T07:02:11;99388.44;;;10.97;100.00
52949;BME280;38812;50.942;3.644;2023-03-31T07:04:36;99381.41;;;10.98;100.00
52949;BME280;38812;50.942;3.644;2023-03-31T07:07:01;99376.06;;;10.99;100.00
52949;BME280;38812;50.942;3.644;2023-03-31T07:09:27;99372.28;;;11.05;100.00
52949;BME280;38812;50.942;3.644;2023-03-31T07:11:52;99382.25;;;10.98;100.00
52949;BME280;38812;50.942;3.644;2023-03-31T07:14:18;99395.47;;;10.97;100.00
52949;BME280;38812;50.942;3.644;2023-03-31T07:16:43;99382.31;;;10.97;100.00
52949;BME280;38812;50.942;3.644;2023-03-31T07:19:09;99370.81;;;10.99;100.00
52949;BME280;38812;50.942;3.644;2023-03-31T07:21:38;99374.16;;;11.03;100.00
52949;BME280;38812;50.942;3.644;2023-03-31T07:24:03;99374.91;;;11.05;100.00
52949;BME280;38812;50.942;3.644;2023-03-31T07:26:29;99365.06;;;11.10;100.00
52949;BME280;38812;50.942;3.644;2023-03-31T07:28:54;99374.16;;;11.03;100.00
52949;BME280;38812;50.942;3.644;2023-03-31T07:31:21;99369.91;;;11.01;100.00
52949;BME280;38812;50.942;3.644;2023-03-31T07:33:47;99353.81;;;10.88;100.00
52949;BME280;38812;50.942;3.644;2023-03-31T07:36:13;99370.91;;;10.98;100.00
52949;BME280;38812;50.942;3.644;2023-03-31T07:38:40;99349.44;;;10.88;100.00
52949;BME280;38812;50.942;3.644;2023-03-31T07:41:10;99364.06;;;10.94;100.00
52949;BME280;38812;50.942;3.644;2023-03-31T07:43:36;99352.44;;;10.99;100.00
52949;BME280;38812;50.942;3.644;2023-03-31T07:46:01;99355.91;;;11.00;100.00
52949;BME280;38812;50.942;3.644;2023-03-31T07:48:27;99358.53;;;11.00;100.00
52949;BME280;38812;50.942;3.644;2023-03-31T07:50:53;99356.47;;;11.07;100.00
52949;BME280;38812;50.942;3.644;2023-03-31T07:53:19;99353.19;;;11.20;100.00
52949;BME280;38812;50.942;3.644;2023-03-31T07:55:46;99343.47;;;11.22;100.00
52949;BME280;38812;50.942;3.644;2023-03-31T07:58:12;99342.69;;;11.20;100.00
52949;BME280;38812;50.942;3.644;2023-03-31T08:00:37;99346.56;;;11.30;100.00
52949;BME280;38812;50.942;3.644;2023-03-31T08:03:03;99334.75;;;11.39;100.00
52949;BME280;38812;50.942;3.644;2023-03-31T08:05:28;99335.34;;;11.46;100.00
52949;BME280;38812;50.942;3.644;2023-03-31T08:07:54;99331.78;;;11.47;100.00
52949;BME280;38812;50.942;3.644;2023-03-31T08:10:22;99337.56;;;11.53;100.00
52949;BME280;38812;50.942;3.644;2023-03-31T08:12:48;99325.34;;;11.52;100.00
52949;BME280;38812;50.942;3.644;2023-03-31T08:15:14;99326.59;;;11.45;100.00
52949;BME280;38812;50.942;3.644;2023-03-31T08:17:40;99320.75;;;11.39;100.00
52949;BME280;38812;50.942;3.644;2023-03-31T08:20:06;99314.81;;;11.35;100.00
52949;BME280;38812;50.942;3.644;2023-03-31T08:22:32;99323.41;;;11.39;100.00
52949;BME280;38812;50.942;3.644;2023-03-31T08:24:58;99321.09;;;11.50;100.00
52949;BME280;38812;50.942;3.644;2023-03-31T08:27:23;99316.22;;;11.59;100.00
52949;BME280;38812;50.942;3.644;2023-03-31T08:29:50;99306.41;;;11.63;100.00
52949;BME280;38812;50.942;3.644;2023-03-31T08:32:15;99319.03;;;11.74;100.00
52949;BME280;38812;50.942;3.644;2023-03-31T08:34:41;99303.81;;;11.80;100.00
52949;BME280;38812;50.942;3.644;2023-03-31T08:37:10;99298.41;;;11.83;100.00
52949;BME280;38812;50.942;3.644;2023-03-31T08:39:35;99291.50;;;11.81;100.00
52949;BME280;38812;50.942;3.644;2023-03-31T08:45:03;99284.31;;;11.67;100.00
52949;BME280;38812;50.942;3.644;2023-03-31T08:47:33;99285.81;;;11.71;100.00
52949;BME280;38812;50.942;3.644;2023-03-31T08:50:15;99298.38;;;11.66;100.00
52949;BME280;38812;50.942;3.644;2023-03-31T08:53:04;99296.91;;;11.60;100.00
52949;BME280;38812;50.942;3.644;2023-03-31T08:55:48;99286.59;;;11.56;100.00
52949;BME280;38812;50.942;3.644;2023-03-31T09:03:30;99278.84;;;11.53;100.00
52949;BME280;38812;50.942;3.644;2023-03-31T09:06:06;99272.28;;;11.61;100.00
52949;BME280;38812;50.942;3.644;2023-03-31T09:08:40;99272.00;;;11.67;100.00
52949;BME280;38812;50.942;3.644;2023-03-31T09:11:10;99264.47;;;11.60;100.00
52949;BME280;38812;50.942;3.644;2023-03-31T09:13:57;99271.38;;;11.62;100.00
52949;BME280;38812;50.942;3.644;2023-03-31T09:16:34;99270.75;;;11.75;100.00
52949;BME280;38812;50.942;3.644;2023-03-31T09:19:07;99264.06;;;11.86;100.00
52949;BME280;38812;50.942;3.644;2023-03-31T09:21:50;99267.69;;;11.84;100.00
52949;BME280;38812;50.942;3.644;2023-03-31T09:24:24;99275.03;;;11.77;100.00
52949;BME280;38812;50.942;3.644;2023-03-31T09:26:55;99268.00;;;11.78;100.00
52949;BME280;38812;50.942;3.644;2023-03-31T09:32:13;99260.16;;;11.42;100.00
52949;BME280;38812;50.942;3.644;2023-03-31T09:34:39;99259.59;;;11.35;100.00
52949;BME280;38812;50.942;3.644;2023-03-31T09:37:05;99269.00;;;11.22;100.00
52949;BME280;38812;50.942;3.644;2023-03-31T09:39:30;99260.63;;;11.14;100.00
52949;BME280;38812;50.942;3.644;2023-03-31T09:41:56;99250.38;;;11.26;100.00
52949;BME280;38812;50.942;3.644;2023-03-31T09:44:39;99250.81;;;11.17;100.00
52949;BME280;38812;50.942;3.644;2023-03-31T09:47:12;99250.69;;;11.20;100.00
52949;BME280;38812;50.942;3.644;2023-03-31T09:49:39;99244.66;;;11.18;100.00
52949;BME280;38812;50.942;3.644;2023-03-31T09:52:19;99251.13;;;11.28;100.00
52949;BME280;38812;50.942;3.644;2023-03-31T09:54:53;99248.69;;;11.25;100.00
52949;BME280;38812;50.942;3.644;2023-03-31T09:57:31;99236.16;;;11.30;100.00
52949;BME280;38812;50.942;3.644;2023-03-31T10:00:03;99224.47;;;11.36;100.00
52949;BME280;38812;50.942;3.644;2023-03-31T10:04:58;99237.09;;;11.64;100.00
52949;BME280;38812;50.942;3.644;2023-03-31T10:07:24;99231.44;;;11.54;100.00
52949;BME280;38812;50.942;3.644;2023-03-31T10:09:51;99235.47;;;11.61;100.00
52949;BME280;38812;50.942;3.644;2023-03-31T10:12:23;99241.66;;;11.43;100.00
52949;BME280;38812;50.942;3.644;2023-03-31T10:14:50;99240.81;;;11.43;100.00
52949;BME280;38812;50.942;3.644;2023-03-31T10:17:22;99235.16;;;11.33;100.00
52949;BME280;38812;50.942;3.644;2023-03-31T10:19:48;99235.69;;;11.40;100.00
52949;BME280;38812;50.942;3.644;2023-03-31T10:22:25;99225.31;;;11.19;100.00
52949;BME280;38812;50.942;3.644;2023-03-31T10:24:51;99221.56;;;11.25;100.00
52949;BME280;38812;50.942;3.644;2023-03-31T10:27:26;99230.59;;;11.37;100.00
52949;BME280;38812;50.942;3.644;2023-03-31T10:29:53;99218.66;;;11.29;100.00
52949;BME280;38812;50.942;3.644;2023-03-31T10:32:28;99217.28;;;11.40;100.00
52949;BME280;38812;50.942;3.644;2023-03-31T10:34:55;99213.25;;;11.32;100.00
52949;BME280;38812;50.942;3.644;2023-03-31T10:37:24;99219.53;;;11.30;100.00
52949;BME280;38812;50.942;3.644;2023-03-31T10:40:03;99215.28;;;11.45;100.00
52949;BME280;38812;50.942;3.644;2023-03-31T10:42:33;99217.13;;;11.60;100.00
52949;BME280;38812;50.942;3.644;2023-03-31T10:45:40;99215.34;;;11.60;100.00
52949;BME280;38812;50.942;3.644;2023-03-31T10:48:38;99196.72;;;11.65;100.00
52949;BME280;38812;50.942;3.644;2023-03-31T10:54:00;99194.53;;;11.56;100.00
52949;BME280;38812;50.942;3.644;2023-03-31T10:56:43;99201.28;;;11.44;100.00
52949;BME280;38812;50.942;3.644;2023-03-31T10:59:34;99193.34;;;11.46;100.00
52949;BME280;38812;50.942;3.644;2023-03-31T11:13:56;99184.78;;;11.75;100.00
52949;BME280;38812;50.942;3.644;2023-03-31T11:16:40;99174.00;;;11.97;100.00
52949;BME280;38812;50.942;3.644;2023-03-31T11:22:23;99178.09;;;12.02;100.00
52949;BME280;38812;50.942;3.644;2023-03-31T11:30:00;99189.28;;;11.56;100.00
52949;BME280;38812;50.942;3.644;2023-03-31T11:32:42;99175.50;;;11.51;100.00
52949;BME280;38812;50.942;3.644;2023-03-31T11:45:32;99173.38;;;11.24;100.00
52949;BME280;38812;50.942;3.644;2023-03-31T11:48:05;99170.28;;;11.33;100.00
52949;BME280;38812;50.942;3.644;2023-03-31T11:50:35;99172.09;;;11.49;100.00
52949;BME280;38812;50.942;3.644;2023-03-31T11:53:10;99180.78;;;11.51;100.00
52949;BME280;38812;50.942;3.644;2023-03-31T11:55:39;99170.91;;;11.39;100.00
52949;BME280;38812;50.942;3.644;2023-03-31T11:58:10;99179.00;;;11.17;100.00
52949;BME280;38812;50.942;3.644;2023-03-31T12:00:39;99194.06;;;11.13;100.00
52949;BME280;38812;50.942;3.644;2023-03-31T12:05:38;99180.72;;;11.35;100.00
52949;BME280;38812;50.942;3.644;2023-03-31T12:10:48;99157.09;;;11.68;100.00
52949;BME280;38812;50.942;3.644;2023-03-31T12:16:12;99164.47;;;11.94;100.00
52949;BME280;38812;50.942;3.644;2023-03-31T12:18:44;99172.16;;;12.15;100.00
52949;BME280;38812;50.942;3.644;2023-03-31T12:21:13;99166.25;;;11.94;100.00
52949;BME280;38812;50.942;3.644;2023-03-31T12:23:43;99166.09;;;11.97;100.00
52949;BME280;38812;50.942;3.644;2023-03-31T12:28:37;99151.06;;;11.83;100.00
52949;BME280;38812;50.942;3.644;2023-03-31T12:31:06;99166.69;;;11.86;100.00
52949;BME280;38812;50.942;3.644;2023-03-31T12:33:38;99164.66;;;11.91;100.00
52949;BME280;38812;50.942;3.644;2023-03-31T12:51:54;99152.91;;;11.81;100.00
52949;BME280;38812;50.942;3.644;2023-03-31T12:59:39;99142.66;;;11.92;100.00
52949;BME280;38812;50.942;3.644;2023-03-31T13:04:35;99149.59;;;12.11;100.00
52949;BME280;38812;50.942;3.644;2023-03-31T13:07:11;99153.63;;;12.00;100.00
52949;BME280;38812;50.942;3.644;2023-03-31T13:09:42;99141.78;;;11.76;100.00
52949;BME280;38812;50.942;3.644;2023-03-31T13:12:28;99133.97;;;11.57;100.00
52949;BME280;38812;50.942;3.644;2023-03-31T13:14:57;99117.19;;;11.60;100.00
52949;BME280;38812;50.942;3.644;2023-03-31T13:17:36;99155.72;;;11.61;100.00
52949;BME280;38812;50.942;3.644;2023-03-31T13:20:25;99146.16;;;11.43;100.00
52949;BME280;38812;50.942;3.644;2023-03-31T13:25:49;99151.94;;;11.15;100.00
52949;BME280;38812;50.942;3.644;2023-03-31T13:33:32;99130.59;;;10.86;100.00
52949;BME280;38812;50.942;3.644;2023-03-31T13:46:50;99130.84;;;10.82;100.00
52949;BME280;38812;50.942;3.644;2023-03-31T13:49:46;99133.63;;;10.79;100.00
52949;BME280;38812;50.942;3.644;2023-03-31T13:52:19;99128.78;;;10.70;100.00
52949;BME280;38812;50.942;3.644;2023-03-31T13:55:03;99134.19;;;10.67;100.00
52949;BME280;38812;50.942;3.644;2023-03-31T14:02:58;99124.00;;;10.60;100.00
52949;BME280;38812;50.942;3.644;2023-03-31T14:05:52;99117.34;;;10.53;100.00
52949;BME280;38812;50.942;3.644;2023-03-31T14:08:32;99118.97;;;10.56;100.00
52949;BME280;38812;50.942;3.644;2023-03-31T14:13:58;99119.75;;;10.58;100.00
52949;BME280;38812;50.942;3.644;2023-03-31T14:16:24;99115.09;;;10.63;100.00
52949;BME280;38812;50.942;3.644;2023-03-31T14:18:53;99107.09;;;10.66;100.00
52949;BME280;38812;50.942;3.644;2023-03-31T14:21:27;99107.50;;;10.76;100.00
52949;BME280;38812;50.942;3.644;2023-03-31T14:24:00;99110.91;;;10.78;100.00
52949;BME280;38812;50.942;3.644;2023-03-31T14:26:38;99109.06;;;10.80;100.00
52949;BME280;38812;50.942;3.644;2023-03-31T14:32:14;99116.31;;;10.75;100.00
52949;BME280;38812;50.942;3.644;2023-03-31T14:34:55;99095.28;;;10.75;100.00
52949;BME280;38812;50.942;3.644;2023-03-31T14:37:26;99102.25;;;10.76;100.00
52949;BME280;38812;50.942;3.644;2023-03-31T14:39:54;99100.84;;;10.69;100.00
52949;BME280;38812;50.942;3.644;2023-03-31T14:42:37;99107.63;;;10.55;100.00
52949;BME280;38812;50.942;3.644;2023-03-31T14:45:06;99117.34;;;10.53;100.00
52949;BME280;38812;50.942;3.644;2023-03-31T14:47:36;99102.66;;;10.49;100.00
52949;BME280;38812;50.942;3.644;2023-03-31T14:50:07;99110.75;;;10.45;100.00
52949;BME280;38812;50.942;3.644;2023-03-31T14:52:36;99094.94;;;10.46;100.00
52949;BME280;38812;50.942;3.644;2023-03-31T14:55:01;99084.91;;;10.54;100.00
52949;BME280;38812;50.942;3.644;2023-03-31T14:57:33;99082.22;;;10.56;100.00
52949;BME280;38812;50.942;3.644;2023-03-31T15:00:00;99094.16;;;10.61;100.00
52949;BME280;38812;50.942;3.644;2023-03-31T15:02:32;99103.59;;;10.48;100.00
52949;BME280;38812;50.942;3.644;2023-03-31T15:05:02;99100.97;;;10.48;100.00
52949;BME280;38812;50.942;3.644;2023-03-31T15:07:28;99084.28;;;10.49;100.00
52949;BME280;38812;50.942;3.644;2023-03-31T15:09:54;99099.75;;;10.55;100.00
52949;BME280;38812;50.942;3.644;2023-03-31T15:12:21;99086.13;;;10.47;100.00
52949;BME280;38812;50.942;3.644;2023-03-31T15:14:52;99073.63;;;10.52;100.00
52949;BME280;38812;50.942;3.644;2023-03-31T15:17:28;99079.16;;;10.46;100.00
52949;BME280;38812;50.942;3.644;2023-03-31T15:19:58;99064.66;;;10.39;100.00
52949;BME280;38812;50.942;3.644;2023-03-31T15:22:26;99064.28;;;10.47;100.00
52949;BME280;38812;50.942;3.644;2023-03-31T15:24:53;99080.44;;;10.56;100.00
52949;BME280;38812;50.942;3.644;2023-03-31T15:27:36;99075.72;;;10.63;100.00
52949;BME280;38812;50.942;3.644;2023-03-31T15:30:07;99079.81;;;10.69;100.00
52949;BME280;38812;50.942;3.644;2023-03-31T15:32:37;99070.03;;;10.72;100.00
52949;BME280;38812;50.942;3.644;2023-03-31T15:35:05;99086.47;;;10.76;100.00
52949;BME280;38812;50.942;3.644;2023-03-31T15:37:42;99067.03;;;10.80;100.00